Flight Track Log - Related Links

Times and Time Zones

All times are in EDT time to prevent confusion due to time zone crossing. See the SWA2966 flight status page for this flight to view local times or setup timezone preferences in your user account.


Time Position Orientation Groundspeed Altitude Reporting Facility
EDT Latitude Longitude Course Direction KTS MPH feet Rate Location/Type
Fri 03:26:30 PM 37.7333 -122.2667 260° West 186 214 1,500  Level Northern Cal TRACON
Fri 03:28:25 PM 37.7167 -122.3833 260° West 252 290 4,000 2,079 Climbing Northern Cal TRACON
Fri 03:30:18 PM 37.5961 -122.4025 187° South 268 308 9,400 2,621 Climbing Oakland Center
Fri 03:31:19 PM 37.5108 -122.4031 180° South 308 354 11,600 2,488 Climbing Oakland Center
Fri 03:32:21 PM 37.4397 -122.2900 128° Southeast 355 409 14,500 2,732 Climbing Oakland Center
Fri 03:33:22 PM 37.3756 -122.1864 128° Southeast 377 434 17,200 2,195 Climbing Oakland Center
Fri 03:34:24 PM 37.3094 -122.0792 128° Southeast 386 444 19,000 1,984 Climbing Oakland Center
Fri 03:35:26 PM 37.2383 -121.9664 128° Southeast 408 470 21,300 2,098 Climbing Oakland Center
Fri 03:36:27 PM 37.1681 -121.8542 128° Southeast 411 473 23,300 1,654 Climbing Oakland Center
Fri 03:38:31 PM 37.0181 -121.6208 129° Southeast 435 501 26,400 1,524 Climbing Oakland Center
Fri 03:39:32 PM 36.9256 -121.4744 128° Southeast 445 512 28,000 1,463 Climbing Oakland Center
Fri 03:40:34 PM 36.8453 -121.3481 128° Southeast 462 532 29,400 1,415 Climbing Oakland Center
Fri 03:41:35 PM 36.7764 -121.2389 128° Southeast 461 531 30,900 1,561 Climbing Oakland Center
Fri 03:42:37 PM 36.6883 -121.0831 125° Southeast 457 526 32,600 1,403 Climbing Oakland Center
Fri 03:43:39 PM 36.6264 -120.9408 118° Southeast 461 531 33,800 1,073 Climbing Oakland Center
Fri 03:44:40 PM 36.5650 -120.7986 118° Southeast 465 535 34,800 585 Climbing Oakland Center
Fri 03:45:42 PM 36.5014 -120.6569 119° Southeast 470 541 35,000 98 Climbing Oakland Center
Fri 03:46:43 PM 36.4161 -120.5389 132° Southeast 463 533 35,000  Level Oakland Center
Fri 03:47:45 PM 36.3319 -120.4164 130° Southeast 464 534 35,000  Level Oakland Center
Fri 03:48:46 PM 36.2464 -120.2925 131° Southeast 471 542 35,000  Level Oakland Center
Fri 03:49:48 PM 36.1606 -120.1706 131° Southeast 470 541 35,000  Level Oakland Center
Fri 03:50:49 PM 36.0744 -120.0486 131° Southeast 468 539 35,000  Level Oakland Center
Fri 03:51:51 PM 35.9722 -119.9039 131° Southeast 465 535 35,000  Level Oakland Center
Fri 03:52:53 PM 35.8872 -119.7831 131° Southeast 464 534 35,000  Level Oakland Center
Fri 03:54:00 PM 35.7986 -119.6611 132° Southeast 471 542 35,000  Level Los Angeles Center
Fri 03:54:56 PM 35.7122 -119.5392 131° Southeast 474 545 35,000  Level Oakland Center
Fri 03:55:58 PM 35.6247 -119.4189 132° Southeast 471 542 35,000  Level Oakland Center
Fri 03:57:00 PM 35.5381 -119.2978 131° Southeast 470 541 35,000  Level Oakland Center
Fri 03:58:01 PM 35.4517 -119.1789 132° Southeast 466 536 35,000 -92 Level Oakland Center
Fri 03:59:11 PM 35.3514 -119.0367 131° Southeast 466 536 34,800 -545 Descending Los Angeles Center
Fri 04:00:13 PM 35.2650 -118.9189 132° Southeast 466 536 33,800 -968 Descending Los Angeles Center
Fri 04:01:15 PM 35.1789 -118.8003 132° Southeast 466 536 32,800 -919 Descending Los Angeles Center
Fri 04:02:17 PM 35.0919 -118.6836 132° Southeast 465 535 31,900 -1,113 Descending Los Angeles Center
Fri 04:03:19 PM 34.9886 -118.5453 132° Southeast 461 531 30,500 -1,742 Descending Los Angeles Center
Fri 04:04:21 PM 34.9075 -118.4367 132° Southeast 456 525 28,300 -2,081 Descending Los Angeles Center
Fri 04:05:23 PM 34.8261 -118.3292 133° Southeast 443 510 26,200 -2,032 Descending Los Angeles Center
Fri 04:06:25 PM 34.7494 -118.2247 132° Southeast 427 491 24,100 -1,548 Descending Los Angeles Center
Fri 04:07:27 PM 34.6628 -118.1072 132° Southeast 396 456 23,000 -1,056 Descending Los Angeles Center
Fri 04:08:30 PM 34.6011 -117.9994 125° Southeast 401 461 21,900 -1,440 Descending Los Angeles Center
Fri 04:09:32 PM 34.5483 -117.8844 119° Southeast 395 455 20,000 -1,548 Descending Los Angeles Center
Fri 04:10:34 PM 34.4981 -117.7744 119° Southeast 381 438 18,700 -1,065 Descending Los Angeles Center
Fri 04:11:36 PM 34.4469 -117.6628 119° Southeast 381 438 17,800 -1,306 Descending Los Angeles Center
Fri 04:12:38 PM 34.3878 -117.5364 120° Southeast 365 420 16,000 -1,742 Descending Los Angeles Center
Fri 04:13:40 PM 34.3461 -117.4500 120° Southeast 337 388 14,200 -1,790 Descending Los Angeles Center
Fri 04:14:42 PM 34.2847 -117.3892 141° Southeast 316 364 12,300 -2,758 Descending Los Angeles Center
Fri 04:15:44 PM 34.1883 -117.3806 176° South 279 321 8,500 -3,387 Descending Los Angeles Center
Fri 04:16:46 PM 34.1153 -117.3917 187° South 267 307 5,300 -3,111 Descending Los Angeles Center
Fri 04:17:05 PM 34.0833 -117.4000 192° South 258 297 4,300 -1,671 Descending Southern California TRACON
Fri 04:18:05 PM 34.0500 -117.4500 231° Southwest 214 246 3,100 -1,000 Descending Southern California TRACON
Fri 04:19:05 PM 34.0500 -117.5000 270° West 152 175 2,300 -750 Descending Southern California TRACON
Fri 04:20:05 PM 34.0500 -117.5500 270° West 142 163 1,600 -650 Descending Southern California TRACON
Fri 04:21:05 PM 34.0667 -117.6000 292° West 222 255 1,000 -600 Descending Southern California TRACON
Fri 04:23:00 PM 34.0500 -117.6000 270° West  Level FlightAware Approximate
Fri 04:30:00 PM 34.0560 -117.6012 270° West  Level Estimated
Fri 04:31:00 PM 34.0500 -117.6000 270° West  Level FlightAware Approximate
Fri 04:32:00 PM 34.0560 -117.6012 270° West  Level Estimated

Login

Don't have an account? Register now (free) for customized features, flight alerts, and more!